Time;durP1;ratioP1;P1;durP2;ratioP2;P2;SDS_P1;SDS_P2;PMS_P1;PMS_P2;Temp;Humidity;BMP_temperature;BMP_pressure;BME280_temperature;BME280_humidity;BME280_pressure;Samples;Min_cycle;Max_cycle;Signal;HPM_P1;HPM_P2
2023/12/08 00:01:05;;;;;;;20.45;13.13;;;1.70;99.90;;;;;;5074886;28;20089;-73
2023/12/08 00:03:32;;;;;;;22.65;13.27;;;1.40;99.90;;;;;;5072342;28;20059;-73
2023/12/08 00:06:00;;;;;;;19.75;12.60;;;1.40;99.90;;;;;;5074032;28;20105;-72
2023/12/08 00:08:27;;;;;;;22.60;13.00;;;1.40;99.90;;;;;;5074516;28;20055;-73
2023/12/08 00:10:54;;;;;;;24.00;13.38;;;1.50;99.90;;;;;;5074206;28;20044;-72
2023/12/08 00:13:21;;;;;;;21.52;11.98;;;1.40;99.90;;;;;;5074100;28;20106;-72
2023/12/08 00:15:48;;;;;;;22.23;11.73;;;1.40;99.90;;;;;;5074118;28;20047;-72
2023/12/08 00:18:15;;;;;;;19.13;12.68;;;1.40;99.90;;;;;;5092121;28;20086;-73
2023/12/08 00:20:42;;;;;;;21.13;12.25;;;1.40;99.90;;;;;;5089690;28;20408;-71
2023/12/08 00:23:10;;;;;;;19.95;12.00;;;1.40;99.90;;;;;;5074177;28;20043;-72
2023/12/08 00:25:37;;;;;;;23.27;12.85;;;1.40;99.90;;;;;;5074095;28;20059;-71
2023/12/08 00:28:04;;;;;;;21.23;12.88;;;1.40;99.90;;;;;;5073357;28;20048;-72
2023/12/08 00:30:31;;;;;;;22.45;13.10;;;1.50;99.90;;;;;;5073839;28;20048;-72
2023/12/08 00:32:58;;;;;;;22.40;12.73;;;1.50;99.90;;;;;;5072253;28;20185;-72
2023/12/08 00:35:25;;;;;;;22.27;11.77;;;1.40;99.90;;;;;;5073537;28;20113;-72
2023/12/08 00:37:52;;;;;;;22.00;11.05;;;1.40;99.90;;;;;;5074173;28;20446;-73
2023/12/08 00:40:21;;;;;;;19.60;12.00;;;1.40;99.90;;;;;;5073848;28;20052;-71
2023/12/08 00:42:48;;;;;;;21.38;12.88;;;1.50;99.90;;;;;;5073725;28;20089;-72
2023/12/08 00:45:15;;;;;;;24.98;12.30;;;1.50;99.90;;;;;;5071631;28;20125;-72
2023/12/08 00:47:41;;;;;;;19.67;11.85;;;1.40;99.90;;;;;;5074158;28;20083;-72
2023/12/08 00:50:09;;;;;;;20.13;11.57;;;1.40;99.90;;;;;;5073432;28;20098;-72
2023/12/08 00:52:36;;;;;;;17.90;11.65;;;1.40;99.90;;;;;;5074001;28;20056;-71
2023/12/08 00:55:03;;;;;;;19.98;11.63;;;1.40;99.90;;;;;;5073389;28;20052;-73
2023/12/08 00:57:32;;;;;;;22.33;12.70;;;1.40;99.90;;;;;;5071888;28;20479;-72
2023/12/08 00:59:58;;;;;;;19.75;12.23;;;1.30;99.90;;;;;;5073980;28;20051;-72
2023/12/08 01:02:26;;;;;;;20.73;12.68;;;1.30;99.90;;;;;;5073301;28;20044;-72
2023/12/08 01:04:53;;;;;;;23.45;11.32;;;1.40;99.90;;;;;;5073686;28;20058;-72
2023/12/08 01:07:19;;;;;;;22.92;12.57;;;1.30;99.90;;;;;;5074091;28;20048;-72
2023/12/08 01:09:46;;;;;;;21.25;12.75;;;1.30;99.90;;;;;;5071115;28;20401;-73
2023/12/08 01:12:13;;;;;;;19.55;11.80;;;1.30;99.90;;;;;;5073727;28;20067;-73
2023/12/08 01:14:41;;;;;;;19.45;11.85;;;1.30;99.90;;;;;;5073887;28;20048;-72
2023/12/08 01:17:08;;;;;;;22.27;12.45;;;1.30;99.90;;;;;;5074230;28;20063;-72
2023/12/08 01:19:35;;;;;;;21.17;12.23;;;1.30;99.90;;;;;;5077556;28;20048;-72
2023/12/08 01:22:03;;;;;;;23.92;13.55;;;1.30;99.90;;;;;;5077632;28;20058;-71
2023/12/08 01:24:29;;;;;;;22.48;13.10;;;1.30;99.90;;;;;;5076837;28;20067;-72
2023/12/08 01:26:56;;;;;;;18.77;12.20;;;1.30;99.90;;;;;;5077475;28;20055;-71
2023/12/08 01:29:23;;;;;;;21.25;12.82;;;1.30;99.90;;;;;;5077640;28;20113;-72
2023/12/08 01:31:51;;;;;;;19.35;11.93;;;1.30;99.90;;;;;;5076680;28;20093;-72
2023/12/08 01:34:18;;;;;;;20.98;12.20;;;1.20;99.90;;;;;;5077321;28;20098;-72
2023/12/08 01:36:45;;;;;;;24.92;13.40;;;1.20;99.90;;;;;;5077646;28;20048;-72
2023/12/08 01:39:12;;;;;;;22.50;12.98;;;1.20;99.90;;;;;;5076893;28;20052;-72
2023/12/08 01:41:39;;;;;;;21.50;12.93;;;1.30;99.90;;;;;;5077198;28;20040;-72
2023/12/08 01:44:06;;;;;;;20.95;11.90;;;1.20;99.90;;;;;;5076939;28;20044;-72
2023/12/08 01:46:33;;;;;;;21.02;13.48;;;1.20;99.90;;;;;;5077302;28;20051;-72
2023/12/08 01:49:01;;;;;;;19.33;12.68;;;1.20;99.90;;;;;;5095391;28;20051;-72
2023/12/08 01:51:29;;;;;;;19.77;11.50;;;1.20;99.90;;;;;;5074598;28;20048;-71
2023/12/08 01:53:56;;;;;;;21.30;13.40;;;1.30;99.90;;;;;;5077151;28;20438;-71
2023/12/08 01:56:23;;;;;;;21.90;13.70;;;1.20;99.90;;;;;;5077258;28;20044;-71
2023/12/08 01:58:50;;;;;;;20.38;12.57;;;1.20;99.90;;;;;;5076660;28;20048;-71
2023/12/08 02:01:18;;;;;;;22.30;13.65;;;1.20;99.90;;;;;;5077002;28;20093;-71
2023/12/08 02:03:48;;;;;;;20.70;12.60;;;1.20;99.90;;;;;;5074951;28;20048;-71
2023/12/08 02:06:17;;;;;;;22.83;12.45;;;1.20;99.90;;;;;;5076362;28;20564;-72
2023/12/08 02:08:45;;;;;;;23.08;12.43;;;1.20;99.90;;;;;;5076821;28;20403;-72
2023/12/08 02:11:13;;;;;;;22.73;13.63;;;1.50;99.90;;;;;;5074847;28;20040;-72
2023/12/08 02:13:40;;;;;;;20.83;12.77;;;1.20;99.90;;;;;;5076342;28;20078;-72
2023/12/08 02:16:11;;;;;;;19.77;12.00;;;1.50;99.90;;;;;;5076559;28;20044;-73
2023/12/08 02:18:40;;;;;;;23.33;13.00;;;1.20;99.90;;;;;;5074735;28;20511;-71
2023/12/08 02:21:08;;;;;;;19.85;12.68;;;1.20;99.90;;;;;;5075988;28;20131;-72
2023/12/08 02:23:37;;;;;;;21.70;11.98;;;1.20;99.90;;;;;;5076692;28;20160;-71
2023/12/08 02:26:06;;;;;;;23.08;12.68;;;1.20;99.90;;;;;;5074922;28;20064;-72
2023/12/08 02:28:33;;;;;;;20.35;12.95;;;1.20;99.90;;;;;;5075557;28;20056;-72
2023/12/08 02:31:01;;;;;;;21.90;13.15;;;1.20;99.90;;;;;;5076486;28;20112;-72
2023/12/08 02:33:33;;;;;;;21.65;12.38;;;0.50;99.90;;;;;;5073779;28;20136;-72
2023/12/08 02:36:01;;;;;;;20.98;11.85;;;1.20;99.90;;;;;;5076455;28;20099;-72
2023/12/08 02:38:29;;;;;;;18.63;11.75;;;1.20;99.90;;;;;;5076598;28;20404;-72
2023/12/08 02:40:56;;;;;;;22.92;13.85;;;1.20;99.90;;;;;;5073894;28;20047;-72
2023/12/08 02:43:24;;;;;;;19.75;12.65;;;1.50;99.90;;;;;;5076262;28;20514;-72
2023/12/08 02:45:51;;;;;;;21.17;11.98;;;1.20;99.90;;;;;;5076356;28;20051;-71
2023/12/08 02:48:18;;;;;;;20.67;11.98;;;1.20;99.90;;;;;;5075816;28;20097;-72
2023/12/08 02:50:45;;;;;;;25.80;13.88;;;1.20;99.90;;;;;;5076023;28;20044;-72
2023/12/08 02:53:12;;;;;;;21.85;12.73;;;1.20;99.90;;;;;;5074124;28;20451;-72
2023/12/08 02:55:39;;;;;;;24.42;12.65;;;1.20;99.90;;;;;;5075506;28;20109;-72
2023/12/08 02:58:06;;;;;;;18.27;11.57;;;1.20;99.90;;;;;;5077577;28;20048;-72
2023/12/08 03:00:34;;;;;;;21.13;12.70;;;1.20;99.90;;;;;;5075718;28;20086;-72
2023/12/08 03:03:01;;;;;;;29.77;14.77;;;1.20;99.90;;;;;;5075588;28;20048;-72
2023/12/08 03:05:28;;;;;;;21.65;13.85;;;1.20;99.90;;;;;;5073705;28;20056;-72
2023/12/08 03:07:55;;;;;;;20.85;12.68;;;1.20;99.90;;;;;;5075584;28;20052;-71
2023/12/08 03:10:21;;;;;;;20.15;12.82;;;1.20;99.90;;;;;;5074952;28;20043;-71
2023/12/08 03:12:48;;;;;;;23.35;13.63;;;1.20;99.90;;;;;;5075412;28;20055;-72
2023/12/08 03:15:15;;;;;;;22.63;14.90;;;1.20;99.90;;;;;;5075419;28;20052;-71
2023/12/08 03:17:44;;;;;;;20.90;12.93;;;1.10;99.90;;;;;;5067532;28;20053;-72
2023/12/08 03:20:11;;;;;;;23.08;12.90;;;1.20;99.90;;;;;;5051820;28;20056;-71
2023/12/08 03:22:38;;;;;;;21.95;13.30;;;1.20;99.90;;;;;;5049578;28;20094;-72
2023/12/08 03:25:06;;;;;;;21.20;13.23;;;1.20;99.90;;;;;;5051742;28;20057;-72
2023/12/08 03:27:33;;;;;;;21.65;12.52;;;1.20;99.90;;;;;;5052221;28;20473;-72
2023/12/08 03:29:59;;;;;;;20.10;12.85;;;1.20;99.90;;;;;;5051521;28;20546;-72
2023/12/08 03:32:26;;;;;;;22.05;12.90;;;1.10;99.90;;;;;;5051810;28;20044;-73
2023/12/08 03:34:54;;;;;;;20.40;11.35;;;1.10;99.90;;;;;;5052011;28;20102;-72
2023/12/08 03:37:21;;;;;;;21.88;13.25;;;1.10;99.90;;;;;;5051269;28;20451;-71
2023/12/08 03:39:48;;;;;;;20.08;12.38;;;1.10;99.90;;;;;;5051333;28;20464;-71
2023/12/08 03:42:15;;;;;;;23.65;12.85;;;1.10;99.90;;;;;;5052747;28;20511;-73
2023/12/08 03:44:42;;;;;;;21.90;12.85;;;1.90;99.90;;;;;;5051416;28;20048;-72
2023/12/08 03:47:09;;;;;;;20.08;11.57;;;1.30;99.90;;;;;;5051826;28;20062;-72
2023/12/08 03:49:36;;;;;;;19.95;11.80;;;1.20;99.90;;;;;;5051703;28;20103;-72
2023/12/08 03:52:04;;;;;;;25.05;12.75;;;1.20;99.90;;;;;;5048711;28;20087;-72
2023/12/08 03:54:31;;;;;;;20.90;11.88;;;1.20;99.90;;;;;;5051628;28;20103;-73
2023/12/08 03:56:59;;;;;;;21.13;12.68;;;1.20;99.90;;;;;;5052630;28;20052;-71
2023/12/08 03:59:26;;;;;;;21.77;13.18;;;1.20;99.90;;;;;;5049992;28;20040;-72
2023/12/08 04:01:53;;;;;;;19.83;11.15;;;1.20;99.90;;;;;;5051385;28;20056;-72
2023/12/08 04:04:20;;;;;;;20.90;12.80;;;1.40;99.90;;;;;;5051850;28;20080;-72
2023/12/08 04:06:47;;;;;;;21.33;13.18;;;2.00;99.90;;;;;;5051784;28;20053;-71
2023/12/08 04:09:15;;;;;;;21.05;12.77;;;1.20;99.90;;;;;;5051197;28;20761;-72
2023/12/08 04:11:42;;;;;;;20.40;12.15;;;1.20;99.90;;;;;;5050981;28;20049;-72
2023/12/08 04:14:09;;;;;;;20.58;12.68;;;1.20;99.90;;;;;;5050674;28;20048;-72
2023/12/08 04:16:35;;;;;;;20.88;11.88;;;1.20;99.90;;;;;;5051214;28;20059;-71
2023/12/08 04:19:02;;;;;;;22.35;12.68;;;1.10;99.90;;;;;;5068684;28;20052;-70
2023/12/08 04:21:29;;;;;;;23.88;11.98;;;1.10;99.90;;;;;;5074261;28;20043;-70
2023/12/08 04:23:56;;;;;;;21.85;12.95;;;1.10;99.90;;;;;;5072328;28;20109;-71
2023/12/08 04:26:25;;;;;;;21.02;12.00;;;1.10;99.90;;;;;;5073692;28;20097;-71
2023/12/08 04:28:53;;;;;;;22.02;13.80;;;1.00;99.90;;;;;;5072685;28;20131;-72
2023/12/08 04:31:20;;;;;;;20.45;13.35;;;1.00;99.90;;;;;;5073703;28;20098;-71
2023/12/08 04:33:47;;;;;;;20.48;12.27;;;1.00;99.90;;;;;;5073774;28;20074;-71
2023/12/08 04:36:15;;;;;;;25.00;12.52;;;1.00;99.90;;;;;;5074302;28;20047;-71
2023/12/08 04:38:41;;;;;;;21.60;12.73;;;1.00;99.90;;;;;;5074290;28;20047;-72
2023/12/08 04:41:08;;;;;;;21.65;12.88;;;0.90;99.90;;;;;;5073669;28;20122;-70
2023/12/08 04:43:36;;;;;;;17.15;11.48;;;0.90;99.90;;;;;;5074199;28;20052;-70
2023/12/08 04:46:04;;;;;;;22.55;13.10;;;1.20;99.90;;;;;;5074017;28;20059;-70
2023/12/08 04:48:31;;;;;;;22.85;13.52;;;0.80;99.90;;;;;;5073691;28;20052;-70
2023/12/08 04:50:58;;;;;;;27.35;13.88;;;0.80;99.90;;;;;;5062761;28;20040;-71
2023/12/08 04:53:25;;;;;;;21.92;13.02;;;1.20;99.90;;;;;;5066896;28;20109;-71
2023/12/08 04:55:52;;;;;;;19.63;12.63;;;1.00;99.90;;;;;;5069944;28;20055;-71
2023/12/08 04:58:20;;;;;;;25.52;14.07;;;1.00;99.90;;;;;;5067861;28;20048;-71
2023/12/08 05:00:49;;;;;;;24.90;13.20;;;0.80;99.90;;;;;;5070748;28;20051;-72
2023/12/08 05:03:16;;;;;;;21.70;13.45;;;0.80;99.90;;;;;;5070799;28;20123;-71
2023/12/08 05:05:43;;;;;;;23.02;13.40;;;0.70;99.90;;;;;;5072956;28;20070;-71
2023/12/08 05:08:09;;;;;;;23.42;14.13;;;0.70;99.90;;;;;;5072463;28;20121;-71
2023/12/08 05:10:37;;;;;;;24.95;14.25;;;0.90;99.90;;;;;;5073051;28;20043;-70
2023/12/08 05:13:03;;;;;;;26.63;14.57;;;0.70;99.90;;;;;;5072932;28;20082;-70
2023/12/08 05:15:30;;;;;;;27.02;16.30;;;0.60;99.90;;;;;;5072746;28;20097;-70
2023/12/08 05:17:58;;;;;;;25.60;15.00;;;0.60;99.90;;;;;;5063030;28;20060;-70
2023/12/08 05:20:25;;;;;;;27.08;15.65;;;0.60;99.90;;;;;;5048945;28;20049;-70
2023/12/08 05:22:52;;;;;;;24.42;14.30;;;1.90;99.90;;;;;;5047543;28;20053;-70
2023/12/08 05:25:19;;;;;;;24.83;14.73;;;0.60;99.90;;;;;;5048773;28;20056;-69
2023/12/08 05:27:46;;;;;;;23.75;14.20;;;0.60;99.90;;;;;;5050725;28;20099;-69
2023/12/08 05:30:13;;;;;;;27.65;15.30;;;0.60;99.90;;;;;;5047143;28;20095;-71
2023/12/08 05:32:40;;;;;;;23.70;15.20;;;0.60;99.90;;;;;;5045874;28;20083;-71
2023/12/08 05:35:09;;;;;;;24.77;14.23;;;0.60;99.90;;;;;;5045070;28;20142;-71
2023/12/08 05:37:36;;;;;;;25.05;14.88;;;0.60;99.90;;;;;;5049113;28;20204;-71
2023/12/08 05:40:03;;;;;;;24.45;14.95;;;0.60;99.90;;;;;;5046421;28;20053;-69
2023/12/08 05:42:30;;;;;;;26.73;15.25;;;0.60;99.90;;;;;;5049456;28;20082;-71
2023/12/08 05:44:57;;;;;;;28.13;15.02;;;0.60;99.90;;;;;;5048992;28;20098;-71
2023/12/08 05:47:24;;;;;;;24.67;15.63;;;0.50;99.90;;;;;;5048042;28;20099;-71
2023/12/08 05:49:52;;;;;;;27.40;16.27;;;0.60;99.90;;;;;;5047800;28;20076;-70
2023/12/08 05:52:20;;;;;;;28.30;16.55;;;0.60;99.90;;;;;;5047377;28;20049;-69
2023/12/08 05:54:47;;;;;;;28.25;15.75;;;0.50;99.90;;;;;;5048949;28;20102;-70
2023/12/08 05:57:14;;;;;;;27.23;16.23;;;0.50;99.90;;;;;;5047533;28;20452;-69
2023/12/08 05:59:41;;;;;;;24.92;14.50;;;0.60;99.90;;;;;;5045161;28;20118;-70
2023/12/08 06:02:08;;;;;;;30.58;16.40;;;0.50;99.90;;;;;;5046336;28;20091;-70
2023/12/08 06:04:34;;;;;;;30.73;15.98;;;0.50;99.90;;;;;;5052172;28;20041;-68
2023/12/08 06:07:01;;;;;;;28.80;16.20;;;0.50;99.90;;;;;;5050901;28;20493;-69
2023/12/08 06:09:29;;;;;;;29.38;17.33;;;0.60;99.90;;;;;;5052158;28;20048;-70
2023/12/08 06:11:56;;;;;;;25.13;15.18;;;0.80;99.90;;;;;;5049245;28;20095;-71
2023/12/08 06:14:23;;;;;;;28.00;15.50;;;0.60;99.90;;;;;;5051931;28;20045;-70
2023/12/08 06:16:50;;;;;;;28.33;16.15;;;0.80;99.90;;;;;;5050952;28;20045;-70
2023/12/08 06:19:17;;;;;;;28.25;16.58;;;0.70;99.90;;;;;;5063495;28;20106;-70
2023/12/08 06:21:44;;;;;;;27.67;16.77;;;0.60;99.90;;;;;;5067942;28;20060;-69
2023/12/08 06:24:11;;;;;;;27.45;15.75;;;0.60;99.90;;;;;;5071690;28;20569;-70
2023/12/08 06:26:39;;;;;;;29.60;16.58;;;0.50;99.90;;;;;;5072416;28;20123;-70
2023/12/08 06:29:08;;;;;;;27.67;15.95;;;0.50;99.90;;;;;;5072434;28;20044;-70
2023/12/08 06:31:35;;;;;;;27.33;15.32;;;0.50;99.90;;;;;;5071854;28;20177;-70
2023/12/08 06:34:02;;;;;;;26.73;15.75;;;0.70;99.90;;;;;;5073372;28;20048;-70
2023/12/08 06:36:29;;;;;;;25.48;15.98;;;0.40;99.90;;;;;;5072503;28;20067;-70
2023/12/08 06:38:55;;;;;;;28.15;16.38;;;0.40;99.90;;;;;;5071268;28;20066;-69
2023/12/08 06:41:22;;;;;;;29.30;16.05;;;0.40;99.90;;;;;;5071954;28;20048;-68
2023/12/08 06:43:51;;;;;;;24.17;14.60;;;0.40;99.90;;;;;;5072254;28;20102;-70
2023/12/08 06:46:17;;;;;;;28.05;15.45;;;0.40;99.90;;;;;;5072361;28;20385;-70
2023/12/08 06:48:44;;;;;;;30.27;17.17;;;0.40;99.90;;;;;;5071953;28;20094;-70
2023/12/08 06:51:11;;;;;;;26.95;15.73;;;0.40;99.90;;;;;;5072504;28;20060;-71
2023/12/08 06:53:38;;;;;;;25.98;16.17;;;0.40;99.90;;;;;;5071723;28;20041;-70
2023/12/08 06:56:06;;;;;;;29.05;15.82;;;0.40;99.90;;;;;;5073150;28;20044;-70
2023/12/08 06:58:33;;;;;;;29.13;16.55;;;0.50;99.90;;;;;;5072087;28;20143;-70
2023/12/08 07:01:01;;;;;;;24.98;15.15;;;0.40;99.90;;;;;;5071215;28;20045;-70
2023/12/08 07:03:28;;;;;;;27.85;16.27;;;0.40;99.90;;;;;;5071425;28;20496;-71
2023/12/08 07:05:55;;;;;;;27.75;17.10;;;0.40;99.90;;;;;;5073330;28;20160;-70
2023/12/08 07:08:22;;;;;;;27.23;16.65;;;1.20;99.90;;;;;;5071481;28;20564;-69
2023/12/08 07:10:49;;;;;;;27.83;17.15;;;0.60;99.90;;;;;;5071882;28;20056;-70
2023/12/08 07:13:16;;;;;;;26.33;15.15;;;0.40;99.90;;;;;;5071744;28;20044;-70
2023/12/08 07:15:43;;;;;;;26.95;15.70;;;0.50;99.90;;;;;;5070264;28;20070;-70
2023/12/08 07:18:11;;;;;;;30.45;16.60;;;0.50;99.90;;;;;;5064053;28;20509;-70
2023/12/08 07:20:38;;;;;;;24.58;15.88;;;0.50;99.90;;;;;;5051896;28;20048;-70
2023/12/08 07:23:05;;;;;;;27.40;15.80;;;0.50;99.90;;;;;;5052464;28;20130;-70
2023/12/08 07:25:32;;;;;;;24.90;15.10;;;0.50;99.90;;;;;;5051618;28;20053;-69
2023/12/08 07:27:59;;;;;;;29.83;16.05;;;0.50;99.90;;;;;;5051572;28;20056;-69
2023/12/08 07:30:26;;;;;;;25.17;14.85;;;0.50;99.90;;;;;;5051196;28;20379;-70
2023/12/08 07:32:53;;;;;;;28.50;15.88;;;0.50;99.90;;;;;;5051334;28;20396;-70
2023/12/08 07:35:21;;;;;;;28.98;16.02;;;0.50;99.90;;;;;;5051854;28;20158;-70
2023/12/08 07:37:49;;;;;;;26.83;16.95;;;0.50;99.90;;;;;;5048892;28;20049;-69
2023/12/08 07:40:16;;;;;;;30.88;17.33;;;0.50;99.90;;;;;;5051323;28;20079;-69
2023/12/08 07:42:43;;;;;;;28.85;14.73;;;0.50;99.90;;;;;;5051699;28;20048;-70
2023/12/08 07:45:10;;;;;;;27.65;15.60;;;1.50;99.90;;;;;;5050106;28;20053;-70
2023/12/08 07:47:38;;;;;;;23.88;14.95;;;0.50;99.90;;;;;;5051978;28;20041;-70
2023/12/08 07:50:06;;;;;;;27.08;16.48;;;0.50;99.90;;;;;;5049735;28;20060;-71
2023/12/08 07:52:36;;;;;;;30.98;16.77;;;0.60;99.90;;;;;;5051237;28;20377;-71
2023/12/08 07:55:03;;;;;;;29.92;17.10;;;0.60;99.90;;;;;;5051225;28;20235;-71
2023/12/08 07:57:29;;;;;;;27.52;15.98;;;0.60;99.90;;;;;;5050461;28;20083;-71
2023/12/08 07:59:58;;;;;;;29.33;16.02;;;0.60;99.90;;;;;;5050276;28;20107;-69
2023/12/08 08:02:24;;;;;;;29.13;17.08;;;0.60;99.90;;;;;;5050877;28;20061;-71
2023/12/08 08:04:51;;;;;;;29.27;16.15;;;0.60;99.90;;;;;;5050127;28;20060;-71
2023/12/08 08:07:18;;;;;;;28.45;16.58;;;0.60;99.90;;;;;;5051274;28;20076;-72
2023/12/08 08:09:46;;;;;;;28.45;15.68;;;0.60;99.90;;;;;;5050840;28;20057;-71
2023/12/08 08:12:13;;;;;;;27.20;15.18;;;0.60;99.90;;;;;;5050447;28;20095;-71
2023/12/08 08:14:40;;;;;;;31.45;17.02;;;0.60;99.90;;;;;;5050668;28;20044;-71
2023/12/08 08:17:07;;;;;;;30.52;16.48;;;0.60;99.90;;;;;;5050576;28;20102;-71
2023/12/08 08:19:34;;;;;;;27.35;16.23;;;0.70;99.90;;;;;;5072286;28;20048;-71
2023/12/08 08:22:01;;;;;;;29.02;16.35;;;0.70;99.90;;;;;;5074076;28;20071;-71
2023/12/08 08:24:28;;;;;;;30.45;16.75;;;0.70;99.90;;;;;;5073541;28;20093;-71
2023/12/08 08:26:56;;;;;;;30.13;16.10;;;0.70;99.90;;;;;;5071934;28;20059;-71
2023/12/08 08:29:23;;;;;;;30.98;17.02;;;0.70;99.90;;;;;;5072624;28;20511;-71
2023/12/08 08:31:50;;;;;;;31.05;16.83;;;0.70;99.90;;;;;;5071635;28;20381;-71
2023/12/08 08:34:17;;;;;;;25.92;15.65;;;0.70;99.90;;;;;;5072706;28;20044;-71
2023/12/08 08:36:44;;;;;;;29.58;16.60;;;0.70;99.90;;;;;;5073816;28;20496;-70
2023/12/08 08:39:10;;;;;;;27.88;16.77;;;0.80;99.90;;;;;;5073102;28;20460;-71
2023/12/08 08:41:37;;;;;;;30.15;16.60;;;0.70;99.90;;;;;;5073863;28;20589;-71
2023/12/08 08:44:06;;;;;;;29.38;16.65;;;0.80;99.90;;;;;;5073382;28;20052;-70
2023/12/08 08:46:33;;;;;;;29.77;15.68;;;0.80;99.90;;;;;;5073081;28;20097;-71
2023/12/08 08:48:59;;;;;;;26.35;15.45;;;0.80;99.90;;;;;;5070627;28;20055;-71
2023/12/08 08:51:26;;;;;;;30.40;16.70;;;0.90;99.90;;;;;;5072554;28;20109;-70
2023/12/08 08:53:54;;;;;;;26.90;15.43;;;0.80;99.90;;;;;;5072479;28;20047;-70
2023/12/08 08:56:21;;;;;;;29.83;17.00;;;0.90;99.90;;;;;;5072273;28;20058;-73
2023/12/08 08:58:48;;;;;;;26.02;14.75;;;0.80;99.90;;;;;;5073292;28;20101;-69
2023/12/08 09:01:16;;;;;;;28.55;15.68;;;1.10;99.90;;;;;;5072492;28;20093;-69
2023/12/08 09:03:43;;;;;;;28.55;17.17;;;0.90;99.90;;;;;;5071944;28;20055;-68
2023/12/08 09:06:10;;;;;;;29.13;16.88;;;0.90;99.90;;;;;;5073298;28;20055;-69
2023/12/08 09:08:37;;;;;;;30.17;17.00;;;0.90;99.90;;;;;;5065174;28;20450;-69
2023/12/08 09:11:04;;;;;;;30.77;17.05;;;0.90;99.90;;;;;;5085311;28;20040;-68
2023/12/08 09:13:31;;;;;;;26.05;15.88;;;1.00;99.90;;;;;;5090938;28;20377;-68
2023/12/08 09:15:58;;;;;;;28.83;16.08;;;0.90;99.90;;;;;;5072178;28;20059;-68
2023/12/08 09:18:27;;;;;;;26.58;15.07;;;1.00;99.90;;;;;;5072730;28;20139;-68
2023/12/08 09:20:54;;;;;;;25.92;15.73;;;0.90;99.90;;;;;;5073132;28;20075;-68
2023/12/08 09:23:21;;;;;;;28.52;17.17;;;1.00;99.90;;;;;;5072915;28;20465;-67
2023/12/08 09:25:48;;;;;;;27.92;16.00;;;1.00;99.90;;;;;;5072886;28;20051;-68
2023/12/08 09:28:17;;;;;;;30.80;15.80;;;1.00;99.90;;;;;;5072904;28;20105;-68
2023/12/08 09:30:44;;;;;;;26.52;15.55;;;1.00;99.90;;;;;;5071815;28;20496;-67
2023/12/08 09:33:11;;;;;;;29.60;15.95;;;1.00;99.90;;;;;;5072665;28;20090;-69
2023/12/08 09:35:39;;;;;;;26.95;14.82;;;1.10;99.90;;;;;;5072529;28;20101;-69
2023/12/08 09:38:06;;;;;;;26.70;15.93;;;1.10;99.90;;;;;;5074039;28;20044;-69
2023/12/08 09:40:34;;;;;;;24.75;15.63;;;1.10;99.90;;;;;;5076601;28;20047;-69
2023/12/08 09:43:08;;;;;;;27.27;15.75;;;1.10;99.90;;;;;;5076139;28;20048;-68
2023/12/08 09:45:36;;;;;;;27.52;16.00;;;1.10;99.90;;;;;;5075652;28;20040;-69
2023/12/08 09:48:05;;;;;;;27.60;15.95;;;1.20;99.90;;;;;;5073558;28;20052;-69
2023/12/08 09:50:32;;;;;;;24.90;15.00;;;1.10;99.90;;;;;;5075343;28;20059;-68
2023/12/08 09:53:00;;;;;;;27.58;15.35;;;1.10;99.90;;;;;;5078490;28;20128;-68
2023/12/08 09:55:29;;;;;;;26.73;15.60;;;1.10;99.90;;;;;;5076335;28;20044;-67
2023/12/08 09:57:58;;;;;;;26.90;15.05;;;1.10;99.90;;;;;;5074930;28;20060;-67
2023/12/08 10:00:25;;;;;;;25.08;14.63;;;1.30;99.90;;;;;;5076247;28;20048;-69
2023/12/08 10:02:53;;;;;;;29.20;16.27;;;1.20;99.90;;;;;;5069344;28;20048;-68
2023/12/08 10:05:20;;;;;;;28.42;15.18;;;1.20;99.90;;;;;;5068529;28;20040;-68
2023/12/08 10:07:50;;;;;;;26.80;15.18;;;1.20;99.90;;;;;;5075662;28;20069;-68
2023/12/08 10:10:19;;;;;;;26.83;14.85;;;1.30;99.90;;;;;;5073702;28;20511;-68
2023/12/08 10:12:47;;;;;;;27.33;16.15;;;1.20;99.90;;;;;;5093431;28;20048;-68
2023/12/08 10:15:17;;;;;;;25.30;14.60;;;1.50;99.90;;;;;;5073662;28;20134;-68
2023/12/08 10:17:48;;;;;;;26.00;15.00;;;1.20;99.90;;;;;;5075273;28;20074;-68
2023/12/08 10:20:16;;;;;;;27.42;15.95;;;1.30;99.90;;;;;;5073101;28;20052;-68
2023/12/08 10:22:45;;;;;;;23.90;14.63;;;1.30;99.90;;;;;;5075158;28;20139;-68
2023/12/08 10:25:13;;;;;;;24.92;15.55;;;1.50;99.90;;;;;;5075131;28;20446;-68
2023/12/08 10:27:41;;;;;;;28.63;15.40;;;1.30;99.90;;;;;;5076100;28;20097;-68
2023/12/08 10:30:10;;;;;;;24.92;15.00;;;1.40;99.90;;;;;;5073884;28;20579;-68
2023/12/08 10:32:38;;;;;;;27.67;16.65;;;1.40;99.90;;;;;;5075351;28;20052;-68
2023/12/08 10:35:06;;;;;;;24.95;16.13;;;1.40;99.90;;;;;;5075441;28;20140;-68
2023/12/08 10:37:33;;;;;;;27.50;15.68;;;1.40;99.90;;;;;;5073437;28;20135;-68
2023/12/08 10:40:00;;;;;;;28.77;15.38;;;1.40;99.90;;;;;;5074832;28;20055;-68
2023/12/08 10:42:27;;;;;;;25.77;16.05;;;1.40;99.90;;;;;;5075850;28;20047;-68
2023/12/08 10:44:55;;;;;;;27.80;16.80;;;1.50;99.90;;;;;;5093705;28;20454;-68
2023/12/08 10:47:22;;;;;;;26.35;15.80;;;1.50;99.90;;;;;;5074686;28;20055;-68
2023/12/08 10:49:51;;;;;;;28.40;16.08;;;1.50;99.90;;;;;;5075162;28;20052;-68
2023/12/08 10:52:19;;;;;;;25.92;15.00;;;1.50;99.90;;;;;;5075534;28;20040;-68
2023/12/08 10:54:46;;;;;;;27.48;15.77;;;1.50;99.90;;;;;;5074425;28;20430;-68
2023/12/08 10:57:13;;;;;;;26.65;15.82;;;1.50;99.90;;;;;;5075263;28;20415;-68
2023/12/08 10:59:43;;;;;;;25.98;15.73;;;1.50;99.90;;;;;;5074400;28;20060;-68
2023/12/08 11:02:19;;;;;;;29.23;16.30;;;1.90;99.90;;;;;;5074509;28;20048;-67
2023/12/08 11:04:49;;;;;;;25.02;15.52;;;1.60;99.90;;;;;;5072834;28;20048;-68
2023/12/08 11:07:18;;;;;;;27.40;14.75;;;1.60;99.90;;;;;;5073938;28;20567;-68
2023/12/08 11:09:45;;;;;;;28.38;16.50;;;1.60;99.90;;;;;;5074372;28;20051;-68
2023/12/08 11:12:16;;;;;;;25.48;15.25;;;1.60;99.90;;;;;;5074700;28;20389;-68
2023/12/08 11:14:47;;;;;;;30.80;15.75;;;1.60;99.90;;;;;;5074233;28;20040;-68
2023/12/08 11:17:22;;;;;;;;;;;1.60;99.90;;;;;;5072741;28;20048;-68
2023/12/08 11:19:50;;;;;;;32.15;17.30;;;1.60;99.90;;;;;;5092197;28;20365;-69
2023/12/08 11:22:17;;;;;;;28.83;16.08;;;1.60;99.90;;;;;;5073579;28;20052;-68
2023/12/08 11:24:44;;;;;;;30.02;18.25;;;1.60;99.90;;;;;;5073877;28;20040;-67
2023/12/08 11:27:19;;;;;;;32.15;16.15;;;1.60;99.90;;;;;;5074612;28;20052;-68
2023/12/08 11:29:56;;;;;;;26.35;16.13;;;1.60;99.90;;;;;;5074048;28;20056;-67
2023/12/08 11:32:35;;;;;;;27.13;16.13;;;1.60;99.90;;;;;;5074121;28;20071;-68
2023/12/08 11:35:06;;;;;;;28.50;16.35;;;1.60;99.90;;;;;;5072285;28;21138;-68
2023/12/08 11:37:34;;;;;;;28.08;16.08;;;1.60;99.90;;;;;;5072507;28;20059;-68
2023/12/08 11:40:03;;;;;;;28.20;16.40;;;1.50;99.90;;;;;;5073911;28;21313;-69
2023/12/08 11:42:33;;;;;;;37.50;17.90;;;1.60;99.90;;;;;;5074114;28;20062;-69
2023/12/08 11:45:00;;;;;;;31.40;17.05;;;1.60;99.90;;;;;;5072263;28;20044;-67
2023/12/08 11:47:30;;;;;;;33.03;18.02;;;1.70;99.90;;;;;;5074364;28;20150;-67
2023/12/08 11:49:57;;;;;;;;;;;1.70;99.90;;;;;;5091739;28;20533;-67
2023/12/08 11:52:27;;;;;;;28.33;15.88;;;1.70;99.90;;;;;;5074018;28;20380;-68
2023/12/08 11:55:12;;;;;;;33.08;17.23;;;1.80;99.90;;;;;;5073096;28;20044;-68
2023/12/08 11:57:43;;;;;;;34.95;17.50;;;1.80;99.90;;;;;;5068993;28;20519;-68
2023/12/08 12:00:11;;;;;;;34.30;17.83;;;1.80;99.90;;;;;;5089941;28;20097;-68
2023/12/08 12:02:43;;;;;;;33.58;17.95;;;1.80;99.90;;;;;;5073738;28;20056;-67
2023/12/08 12:05:11;;;;;;;34.05;19.20;;;1.80;99.90;;;;;;5091164;28;20101;-67
2023/12/08 12:07:38;;;;;;;34.97;19.25;;;1.80;99.90;;;;;;5074000;28;20040;-67
2023/12/08 12:10:10;;;;;;;37.50;19.88;;;1.90;99.90;;;;;;5073203;28;20055;-68
2023/12/08 12:12:40;;;;;;;34.30;17.73;;;1.80;99.90;;;;;;5072174;28;20066;-68
2023/12/08 12:15:09;;;;;;;36.90;18.70;;;1.90;99.90;;;;;;5073999;28;20106;-68
2023/12/08 12:17:37;;;;;;;32.60;18.05;;;1.90;99.90;;;;;;5089771;28;20397;-68
2023/12/08 12:20:08;;;;;;;37.67;19.92;;;2.00;99.90;;;;;;5092475;28;20059;-68
2023/12/08 12:22:35;;;;;;;;;;;1.90;99.90;;;;;;5074804;28;20044;-68
2023/12/08 12:25:01;;;;;;;37.55;18.40;;;1.90;99.90;;;;;;5073824;28;19943;-69
2023/12/08 12:27:28;;;;;;;35.92;18.60;;;2.00;99.90;;;;;;5092136;28;20426;-69
2023/12/08 12:29:56;;;;;;;35.10;18.98;;;1.90;99.90;;;;;;5074039;28;20569;-68
2023/12/08 12:32:23;;;;;;;37.63;18.23;;;2.00;99.90;;;;;;5073541;28;20113;-68
2023/12/08 12:34:50;;;;;;;38.78;18.98;;;2.20;99.90;;;;;;5073791;28;20040;-68
2023/12/08 12:37:18;;;;;;;37.50;19.13;;;2.00;99.90;;;;;;5074068;28;20044;-68
2023/12/08 12:39:45;;;;;;;39.00;19.50;;;1.90;99.90;;;;;;5073489;28;20059;-68